sensor_id;sensor_type;location;lat;lon;timestamp;P1;durP1;ratioP1;P2;durP2;ratioP2
66927;SDS011;59882;45.624;11.698;2023-04-15T00:00:48;7.27;;;3.40;;
66927;SDS011;59882;45.624;11.698;2023-04-15T00:03:15;6.45;;;4.00;;
66927;SDS011;59882;45.624;11.698;2023-04-15T00:05:41;7.43;;;3.30;;
66927;SDS011;59882;45.624;11.698;2023-04-15T00:08:07;6.67;;;3.13;;
66927;SDS011;59882;45.624;11.698;2023-04-15T00:10:32;8.48;;;3.50;;
66927;SDS011;59882;45.624;11.698;2023-04-15T00:12:58;7.40;;;3.50;;
66927;SDS011;59882;45.624;11.698;2023-04-15T00:15:24;6.97;;;3.25;;
66927;SDS011;59882;45.624;11.698;2023-04-15T00:17:51;6.55;;;4.07;;
66927;SDS011;59882;45.624;11.698;2023-04-15T00:20:16;7.80;;;3.43;;
66927;SDS011;59882;45.624;11.698;2023-04-15T00:22:42;6.80;;;3.28;;
66927;SDS011;59882;45.624;11.698;2023-04-15T00:25:08;7.07;;;3.53;;
66927;SDS011;59882;45.624;11.698;2023-04-15T00:27:33;7.05;;;3.67;;
66927;SDS011;59882;45.624;11.698;2023-04-15T00:29:59;7.27;;;3.50;;
66927;SDS011;59882;45.624;11.698;2023-04-15T00:32:25;5.95;;;3.35;;
66927;SDS011;59882;45.624;11.698;2023-04-15T00:34:51;6.57;;;3.90;;
66927;SDS011;59882;45.624;11.698;2023-04-15T00:37:17;8.45;;;3.88;;
66927;SDS011;59882;45.624;11.698;2023-04-15T00:39:43;14.68;;;3.42;;
66927;SDS011;59882;45.624;11.698;2023-04-15T00:42:09;6.20;;;3.17;;
66927;SDS011;59882;45.624;11.698;2023-04-15T00:44:35;5.45;;;3.35;;
66927;SDS011;59882;45.624;11.698;2023-04-15T00:47:00;7.80;;;3.87;;
66927;SDS011;59882;45.624;11.698;2023-04-15T00:49:27;7.95;;;3.88;;
66927;SDS011;59882;45.624;11.698;2023-04-15T00:51:53;7.95;;;3.90;;
66927;SDS011;59882;45.624;11.698;2023-04-15T00:54:19;6.63;;;3.80;;
66927;SDS011;59882;45.624;11.698;2023-04-15T00:56:45;5.85;;;3.63;;
66927;SDS011;59882;45.624;11.698;2023-04-15T00:59:11;7.18;;;4.00;;
66927;SDS011;59882;45.624;11.698;2023-04-15T01:01:38;8.50;;;3.90;;
66927;SDS011;59882;45.624;11.698;2023-04-15T01:04:03;7.90;;;3.58;;
66927;SDS011;59882;45.624;11.698;2023-04-15T01:06:30;8.38;;;3.70;;
66927;SDS011;59882;45.624;11.698;2023-04-15T01:08:56;7.80;;;3.30;;
66927;SDS011;59882;45.624;11.698;2023-04-15T01:11:22;5.80;;;2.83;;
66927;SDS011;59882;45.624;11.698;2023-04-15T01:13:49;6.93;;;3.03;;
66927;SDS011;59882;45.624;11.698;2023-04-15T01:16:16;6.10;;;3.05;;
66927;SDS011;59882;45.624;11.698;2023-04-15T01:18:42;7.53;;;3.95;;
66927;SDS011;59882;45.624;11.698;2023-04-15T01:21:08;6.03;;;2.90;;
66927;SDS011;59882;45.624;11.698;2023-04-15T01:23:35;6.43;;;2.90;;
66927;SDS011;59882;45.624;11.698;2023-04-15T01:26:02;7.88;;;3.40;;
66927;SDS011;59882;45.624;11.698;2023-04-15T01:28:29;7.22;;;3.25;;
66927;SDS011;59882;45.624;11.698;2023-04-15T01:31:08;6.65;;;3.50;;
66927;SDS011;59882;45.624;11.698;2023-04-15T01:33:36;7.17;;;3.40;;
66927;SDS011;59882;45.624;11.698;2023-04-15T01:36:03;6.03;;;3.22;;
66927;SDS011;59882;45.624;11.698;2023-04-15T01:38:29;6.05;;;3.30;;
66927;SDS011;59882;45.624;11.698;2023-04-15T01:40:56;6.65;;;3.13;;
66927;SDS011;59882;45.624;11.698;2023-04-15T01:43:23;5.85;;;3.17;;
66927;SDS011;59882;45.624;11.698;2023-04-15T01:45:49;9.83;;;3.70;;
66927;SDS011;59882;45.624;11.698;2023-04-15T01:48:15;5.95;;;3.10;;
66927;SDS011;59882;45.624;11.698;2023-04-15T01:50:40;5.38;;;2.88;;
66927;SDS011;59882;45.624;11.698;2023-04-15T01:53:07;8.30;;;3.17;;
66927;SDS011;59882;45.624;11.698;2023-04-15T01:55:32;5.45;;;2.83;;
66927;SDS011;59882;45.624;11.698;2023-04-15T01:57:58;7.97;;;3.13;;
66927;SDS011;59882;45.624;11.698;2023-04-15T02:00:24;5.03;;;2.80;;
66927;SDS011;59882;45.624;11.698;2023-04-15T02:02:49;5.23;;;2.73;;
66927;SDS011;59882;45.624;11.698;2023-04-15T02:05:15;5.70;;;2.70;;
66927;SDS011;59882;45.624;11.698;2023-04-15T02:07:41;6.78;;;2.40;;
66927;SDS011;59882;45.624;11.698;2023-04-15T02:10:07;7.03;;;2.95;;
66927;SDS011;59882;45.624;11.698;2023-04-15T02:12:34;5.93;;;3.27;;
66927;SDS011;59882;45.624;11.698;2023-04-15T02:15:00;5.63;;;2.58;;
66927;SDS011;59882;45.624;11.698;2023-04-15T02:17:26;7.25;;;3.00;;
66927;SDS011;59882;45.624;11.698;2023-04-15T02:19:51;7.23;;;3.03;;
66927;SDS011;59882;45.624;11.698;2023-04-15T02:22:17;6.07;;;3.00;;
66927;SDS011;59882;45.624;11.698;2023-04-15T02:24:43;6.30;;;3.30;;
66927;SDS011;59882;45.624;11.698;2023-04-15T02:27:10;6.33;;;2.90;;
66927;SDS011;59882;45.624;11.698;2023-04-15T02:29:39;5.10;;;2.70;;
66927;SDS011;59882;45.624;11.698;2023-04-15T02:32:05;6.05;;;2.30;;
66927;SDS011;59882;45.624;11.698;2023-04-15T02:34:31;6.70;;;2.90;;
66927;SDS011;59882;45.624;11.698;2023-04-15T02:36:57;8.82;;;2.90;;
66927;SDS011;59882;45.624;11.698;2023-04-15T02:39:23;5.78;;;2.70;;
66927;SDS011;59882;45.624;11.698;2023-04-15T02:41:49;7.33;;;3.00;;
66927;SDS011;59882;45.624;11.698;2023-04-15T02:44:17;6.07;;;2.88;;
66927;SDS011;59882;45.624;11.698;2023-04-15T02:46:44;6.57;;;2.55;;
66927;SDS011;59882;45.624;11.698;2023-04-15T02:49:16;6.33;;;2.90;;
66927;SDS011;59882;45.624;11.698;2023-04-15T02:51:42;5.70;;;3.08;;
66927;SDS011;59882;45.624;11.698;2023-04-15T02:54:11;6.75;;;2.65;;
66927;SDS011;59882;45.624;11.698;2023-04-15T02:56:37;5.30;;;2.57;;
66927;SDS011;59882;45.624;11.698;2023-04-15T02:59:02;5.82;;;2.67;;
66927;SDS011;59882;45.624;11.698;2023-04-15T03:01:28;5.50;;;2.40;;
66927;SDS011;59882;45.624;11.698;2023-04-15T03:03:54;5.00;;;2.88;;
66927;SDS011;59882;45.624;11.698;2023-04-15T03:06:20;5.70;;;2.63;;
66927;SDS011;59882;45.624;11.698;2023-04-15T03:08:45;6.07;;;2.30;;
66927;SDS011;59882;45.624;11.698;2023-04-15T03:11:11;5.43;;;3.00;;
66927;SDS011;59882;45.624;11.698;2023-04-15T03:13:38;5.38;;;2.78;;
66927;SDS011;59882;45.624;11.698;2023-04-15T03:16:05;5.95;;;2.67;;
66927;SDS011;59882;45.624;11.698;2023-04-15T03:18:31;6.20;;;2.65;;
66927;SDS011;59882;45.624;11.698;2023-04-15T03:20:57;6.07;;;3.20;;
66927;SDS011;59882;45.624;11.698;2023-04-15T03:23:22;5.75;;;3.28;;
66927;SDS011;59882;45.624;11.698;2023-04-15T03:25:48;5.77;;;3.00;;
66927;SDS011;59882;45.624;11.698;2023-04-15T03:28:14;5.57;;;3.35;;
66927;SDS011;59882;45.624;11.698;2023-04-15T03:30:40;5.20;;;3.30;;
66927;SDS011;59882;45.624;11.698;2023-04-15T03:33:06;6.32;;;3.65;;
66927;SDS011;59882;45.624;11.698;2023-04-15T03:35:32;7.32;;;4.05;;
66927;SDS011;59882;45.624;11.698;2023-04-15T03:37:58;6.20;;;3.00;;
66927;SDS011;59882;45.624;11.698;2023-04-15T03:40:24;6.30;;;3.40;;
66927;SDS011;59882;45.624;11.698;2023-04-15T03:42:50;4.82;;;2.72;;
66927;SDS011;59882;45.624;11.698;2023-04-15T03:48:01;4.70;;;2.40;;
66927;SDS011;59882;45.624;11.698;2023-04-15T03:50:27;5.33;;;2.73;;
66927;SDS011;59882;45.624;11.698;2023-04-15T03:52:52;5.97;;;2.63;;
66927;SDS011;59882;45.624;11.698;2023-04-15T03:55:18;6.70;;;3.10;;
66927;SDS011;59882;45.624;11.698;2023-04-15T03:57:44;8.52;;;4.13;;
66927;SDS011;59882;45.624;11.698;2023-04-15T04:00:10;7.80;;;4.20;;
66927;SDS011;59882;45.624;11.698;2023-04-15T04:02:36;6.53;;;3.78;;
66927;SDS011;59882;45.624;11.698;2023-04-15T04:05:02;13.25;;;4.40;;
66927;SDS011;59882;45.624;11.698;2023-04-15T04:07:28;9.23;;;4.28;;
66927;SDS011;59882;45.624;11.698;2023-04-15T04:09:54;8.97;;;3.70;;
66927;SDS011;59882;45.624;11.698;2023-04-15T04:12:21;8.07;;;3.53;;
66927;SDS011;59882;45.624;11.698;2023-04-15T04:14:47;8.13;;;3.90;;
66927;SDS011;59882;45.624;11.698;2023-04-15T04:17:13;8.03;;;3.97;;
66927;SDS011;59882;45.624;11.698;2023-04-15T04:19:38;7.33;;;3.60;;
66927;SDS011;59882;45.624;11.698;2023-04-15T04:22:04;8.35;;;4.20;;
66927;SDS011;59882;45.624;11.698;2023-04-15T04:24:30;8.07;;;4.03;;
66927;SDS011;59882;45.624;11.698;2023-04-15T04:26:56;7.83;;;3.10;;
66927;SDS011;59882;45.624;11.698;2023-04-15T04:29:22;6.38;;;4.10;;
66927;SDS011;59882;45.624;11.698;2023-04-15T04:31:47;7.73;;;3.83;;
66927;SDS011;59882;45.624;11.698;2023-04-15T04:34:13;8.00;;;3.80;;
66927;SDS011;59882;45.624;11.698;2023-04-15T04:36:39;7.93;;;3.75;;
66927;SDS011;59882;45.624;11.698;2023-04-15T04:39:05;6.93;;;3.43;;
66927;SDS011;59882;45.624;11.698;2023-04-15T04:41:31;7.90;;;3.92;;
66927;SDS011;59882;45.624;11.698;2023-04-15T04:43:56;8.47;;;3.87;;
66927;SDS011;59882;45.624;11.698;2023-04-15T04:46:22;13.87;;;4.13;;
66927;SDS011;59882;45.624;11.698;2023-04-15T04:48:48;9.80;;;3.97;;
66927;SDS011;59882;45.624;11.698;2023-04-15T04:51:13;8.23;;;3.83;;
66927;SDS011;59882;45.624;11.698;2023-04-15T04:53:39;8.30;;;3.65;;
66927;SDS011;59882;45.624;11.698;2023-04-15T04:56:07;12.77;;;3.63;;
66927;SDS011;59882;45.624;11.698;2023-04-15T04:58:32;8.52;;;3.47;;
66927;SDS011;59882;45.624;11.698;2023-04-15T05:00:58;11.03;;;3.70;;
66927;SDS011;59882;45.624;11.698;2023-04-15T05:03:23;6.47;;;3.30;;
66927;SDS011;59882;45.624;11.698;2023-04-15T05:05:49;7.40;;;3.55;;
66927;SDS011;59882;45.624;11.698;2023-04-15T05:08:15;7.70;;;3.20;;
66927;SDS011;59882;45.624;11.698;2023-04-15T05:10:41;8.40;;;3.57;;
66927;SDS011;59882;45.624;11.698;2023-04-15T05:13:06;6.85;;;2.85;;
66927;SDS011;59882;45.624;11.698;2023-04-15T05:15:32;8.33;;;2.80;;
66927;SDS011;59882;45.624;11.698;2023-04-15T05:18:00;6.82;;;2.55;;
66927;SDS011;59882;45.624;11.698;2023-04-15T05:20:26;8.98;;;2.58;;
66927;SDS011;59882;45.624;11.698;2023-04-15T05:22:52;5.47;;;2.33;;
66927;SDS011;59882;45.624;11.698;2023-04-15T05:25:18;4.50;;;2.00;;
66927;SDS011;59882;45.624;11.698;2023-04-15T05:27:45;6.30;;;1.52;;
66927;SDS011;59882;45.624;11.698;2023-04-15T05:30:10;5.43;;;2.10;;
66927;SDS011;59882;45.624;11.698;2023-04-15T05:32:37;8.77;;;1.70;;
66927;SDS011;59882;45.624;11.698;2023-04-15T05:35:02;4.53;;;1.97;;
66927;SDS011;59882;45.624;11.698;2023-04-15T05:37:28;5.15;;;1.45;;
66927;SDS011;59882;45.624;11.698;2023-04-15T05:39:54;6.30;;;1.40;;
66927;SDS011;59882;45.624;11.698;2023-04-15T05:42:19;4.35;;;1.52;;
66927;SDS011;59882;45.624;11.698;2023-04-15T05:44:45;3.90;;;1.33;;
66927;SDS011;59882;45.624;11.698;2023-04-15T05:47:11;6.18;;;1.40;;
66927;SDS011;59882;45.624;11.698;2023-04-15T05:49:36;3.97;;;1.50;;
66927;SDS011;59882;45.624;11.698;2023-04-15T05:52:02;5.93;;;1.23;;
66927;SDS011;59882;45.624;11.698;2023-04-15T05:54:28;4.70;;;1.60;;
66927;SDS011;59882;45.624;11.698;2023-04-15T05:56:53;7.33;;;2.30;;
66927;SDS011;59882;45.624;11.698;2023-04-15T05:59:20;7.00;;;2.85;;
66927;SDS011;59882;45.624;11.698;2023-04-15T06:01:45;6.60;;;2.85;;
66927;SDS011;59882;45.624;11.698;2023-04-15T06:04:11;7.03;;;2.67;;
66927;SDS011;59882;45.624;11.698;2023-04-15T06:06:37;6.82;;;3.15;;
66927;SDS011;59882;45.624;11.698;2023-04-15T06:09:03;8.40;;;3.60;;
66927;SDS011;59882;45.624;11.698;2023-04-15T06:11:29;7.25;;;3.05;;
66927;SDS011;59882;45.624;11.698;2023-04-15T06:13:54;5.57;;;3.27;;
66927;SDS011;59882;45.624;11.698;2023-04-15T06:16:20;8.32;;;3.45;;
66927;SDS011;59882;45.624;11.698;2023-04-15T06:18:47;7.95;;;4.22;;
66927;SDS011;59882;45.624;11.698;2023-04-15T06:21:12;8.23;;;3.80;;
66927;SDS011;59882;45.624;11.698;2023-04-15T06:23:38;6.78;;;3.60;;
66927;SDS011;59882;45.624;11.698;2023-04-15T06:26:05;7.97;;;3.80;;
66927;SDS011;59882;45.624;11.698;2023-04-15T06:28:31;8.90;;;3.85;;
66927;SDS011;59882;45.624;11.698;2023-04-15T06:30:56;5.73;;;3.53;;
66927;SDS011;59882;45.624;11.698;2023-04-15T06:33:22;6.90;;;3.53;;
66927;SDS011;59882;45.624;11.698;2023-04-15T06:35:48;6.03;;;3.50;;
66927;SDS011;59882;45.624;11.698;2023-04-15T06:38:14;7.95;;;4.30;;
66927;SDS011;59882;45.624;11.698;2023-04-15T06:40:39;6.70;;;4.30;;
66927;SDS011;59882;45.624;11.698;2023-04-15T06:43:06;6.85;;;4.40;;
66927;SDS011;59882;45.624;11.698;2023-04-15T06:45:32;9.07;;;4.80;;
66927;SDS011;59882;45.624;11.698;2023-04-15T06:47:57;6.97;;;4.67;;
66927;SDS011;59882;45.624;11.698;2023-04-15T06:50:23;7.00;;;4.77;;
66927;SDS011;59882;45.624;11.698;2023-04-15T06:52:48;7.30;;;4.68;;
66927;SDS011;59882;45.624;11.698;2023-04-15T06:55:14;11.40;;;4.90;;
66927;SDS011;59882;45.624;11.698;2023-04-15T06:57:40;7.30;;;5.00;;
66927;SDS011;59882;45.624;11.698;2023-04-15T07:00:06;9.55;;;5.43;;
66927;SDS011;59882;45.624;11.698;2023-04-15T07:02:32;8.93;;;5.90;;
66927;SDS011;59882;45.624;11.698;2023-04-15T07:04:58;10.13;;;5.75;;
66927;SDS011;59882;45.624;11.698;2023-04-15T07:07:25;7.78;;;5.15;;
66927;SDS011;59882;45.624;11.698;2023-04-15T07:09:50;9.67;;;5.90;;
66927;SDS011;59882;45.624;11.698;2023-04-15T07:12:17;11.38;;;6.57;;
66927;SDS011;59882;45.624;11.698;2023-04-15T07:14:43;14.30;;;8.73;;
66927;SDS011;59882;45.624;11.698;2023-04-15T07:17:09;13.87;;;7.87;;
66927;SDS011;59882;45.624;11.698;2023-04-15T07:19:35;13.88;;;7.63;;
66927;SDS011;59882;45.624;11.698;2023-04-15T07:22:01;13.83;;;8.23;;
66927;SDS011;59882;45.624;11.698;2023-04-15T07:24:26;9.98;;;6.18;;
66927;SDS011;59882;45.624;11.698;2023-04-15T07:26:53;8.30;;;5.30;;
66927;SDS011;59882;45.624;11.698;2023-04-15T07:29:21;7.13;;;5.28;;
66927;SDS011;59882;45.624;11.698;2023-04-15T07:31:47;8.18;;;4.80;;
66927;SDS011;59882;45.624;11.698;2023-04-15T07:34:13;9.10;;;5.47;;
66927;SDS011;59882;45.624;11.698;2023-04-15T07:36:38;7.97;;;5.40;;
66927;SDS011;59882;45.624;11.698;2023-04-15T07:39:04;12.07;;;5.60;;
66927;SDS011;59882;45.624;11.698;2023-04-15T07:41:30;9.88;;;5.70;;
66927;SDS011;59882;45.624;11.698;2023-04-15T07:43:55;7.47;;;5.50;;
66927;SDS011;59882;45.624;11.698;2023-04-15T07:46:21;8.13;;;4.80;;
66927;SDS011;59882;45.624;11.698;2023-04-15T07:48:48;6.60;;;4.63;;
66927;SDS011;59882;45.624;11.698;2023-04-15T07:51:14;7.93;;;4.57;;
66927;SDS011;59882;45.624;11.698;2023-04-15T07:53:41;9.90;;;5.10;;
66927;SDS011;59882;45.624;11.698;2023-04-15T07:56:08;7.47;;;3.90;;
66927;SDS011;59882;45.624;11.698;2023-04-15T07:58:34;6.50;;;4.40;;
66927;SDS011;59882;45.624;11.698;2023-04-15T08:01:00;10.40;;;4.40;;
66927;SDS011;59882;45.624;11.698;2023-04-15T08:03:25;7.40;;;4.35;;
66927;SDS011;59882;45.624;11.698;2023-04-15T08:05:51;9.48;;;4.78;;
66927;SDS011;59882;45.624;11.698;2023-04-15T08:08:18;9.50;;;4.37;;
66927;SDS011;59882;45.624;11.698;2023-04-15T08:10:43;8.68;;;4.22;;
66927;SDS011;59882;45.624;11.698;2023-04-15T08:13:09;8.00;;;4.43;;
66927;SDS011;59882;45.624;11.698;2023-04-15T08:15:35;9.97;;;4.30;;
66927;SDS011;59882;45.624;11.698;2023-04-15T08:18:01;8.93;;;4.43;;
66927;SDS011;59882;45.624;11.698;2023-04-15T08:20:27;10.00;;;4.03;;
66927;SDS011;59882;45.624;11.698;2023-04-15T08:22:53;7.68;;;4.07;;
66927;SDS011;59882;45.624;11.698;2023-04-15T08:25:19;7.93;;;4.35;;
66927;SDS011;59882;45.624;11.698;2023-04-15T08:27:45;6.87;;;4.03;;
66927;SDS011;59882;45.624;11.698;2023-04-15T08:30:11;8.45;;;4.70;;
66927;SDS011;59882;45.624;11.698;2023-04-15T08:32:37;8.93;;;4.22;;
66927;SDS011;59882;45.624;11.698;2023-04-15T08:35:03;6.53;;;3.93;;
66927;SDS011;59882;45.624;11.698;2023-04-15T08:37:28;8.80;;;3.70;;
66927;SDS011;59882;45.624;11.698;2023-04-15T08:39:54;5.63;;;3.13;;
66927;SDS011;59882;45.624;11.698;2023-04-15T08:42:22;7.53;;;3.13;;
66927;SDS011;59882;45.624;11.698;2023-04-15T08:44:52;8.77;;;4.30;;
66927;SDS011;59882;45.624;11.698;2023-04-15T08:47:19;9.75;;;4.28;;
66927;SDS011;59882;45.624;11.698;2023-04-15T08:49:46;7.90;;;3.90;;
66927;SDS011;59882;45.624;11.698;2023-04-15T08:52:17;9.38;;;3.63;;
66927;SDS011;59882;45.624;11.698;2023-04-15T08:54:43;7.40;;;4.25;;
66927;SDS011;59882;45.624;11.698;2023-04-15T08:57:09;6.60;;;3.85;;
66927;SDS011;59882;45.624;11.698;2023-04-15T08:59:35;10.83;;;4.47;;
66927;SDS011;59882;45.624;11.698;2023-04-15T09:02:01;7.85;;;3.97;;
66927;SDS011;59882;45.624;11.698;2023-04-15T09:04:27;8.55;;;3.53;;
66927;SDS011;59882;45.624;11.698;2023-04-15T09:06:53;6.30;;;2.97;;
66927;SDS011;59882;45.624;11.698;2023-04-15T09:09:19;8.80;;;4.03;;
66927;SDS011;59882;45.624;11.698;2023-04-15T09:11:44;8.83;;;3.27;;
66927;SDS011;59882;45.624;11.698;2023-04-15T09:14:10;7.70;;;3.03;;
66927;SDS011;59882;45.624;11.698;2023-04-15T09:19:22;8.70;;;2.97;;
66927;SDS011;59882;45.624;11.698;2023-04-15T09:21:49;7.40;;;3.30;;
66927;SDS011;59882;45.624;11.698;2023-04-15T09:24:17;6.10;;;3.10;;
66927;SDS011;59882;45.624;11.698;2023-04-15T09:26:43;10.60;;;4.60;;
66927;SDS011;59882;45.624;11.698;2023-04-15T09:29:09;7.97;;;3.20;;
66927;SDS011;59882;45.624;11.698;2023-04-15T09:31:38;6.57;;;2.63;;
66927;SDS011;59882;45.624;11.698;2023-04-15T09:34:05;5.72;;;3.08;;
66927;SDS011;59882;45.624;11.698;2023-04-15T09:37:04;7.18;;;2.70;;
66927;SDS011;59882;45.624;11.698;2023-04-15T09:39:22;8.75;;;3.25;;
66927;SDS011;59882;45.624;11.698;2023-04-15T09:42:06;10.57;;;3.83;;
66927;SDS011;59882;45.624;11.698;2023-04-15T09:44:32;8.05;;;4.13;;
66927;SDS011;59882;45.624;11.698;2023-04-15T09:46:58;8.45;;;3.30;;
66927;SDS011;59882;45.624;11.698;2023-04-15T09:49:24;7.00;;;2.87;;
66927;SDS011;59882;45.624;11.698;2023-04-15T09:51:50;11.45;;;3.45;;
66927;SDS011;59882;45.624;11.698;2023-04-15T09:54:21;8.85;;;3.40;;
66927;SDS011;59882;45.624;11.698;2023-04-15T09:56:47;7.37;;;3.90;;
66927;SDS011;59882;45.624;11.698;2023-04-15T09:59:13;9.32;;;3.15;;
66927;SDS011;59882;45.624;11.698;2023-04-15T10:01:38;7.57;;;2.60;;
66927;SDS011;59882;45.624;11.698;2023-04-15T10:04:06;10.25;;;3.53;;
66927;SDS011;59882;45.624;11.698;2023-04-15T10:06:33;5.18;;;3.00;;
66927;SDS011;59882;45.624;11.698;2023-04-15T10:09:00;7.83;;;2.83;;
66927;SDS011;59882;45.624;11.698;2023-04-15T10:11:27;6.63;;;2.78;;
66927;SDS011;59882;45.624;11.698;2023-04-15T10:13:54;7.57;;;3.13;;
66927;SDS011;59882;45.624;11.698;2023-04-15T10:16:20;6.93;;;3.10;;
66927;SDS011;59882;45.624;11.698;2023-04-15T10:18:53;6.13;;;3.20;;
66927;SDS011;59882;45.624;11.698;2023-04-15T10:21:20;5.85;;;3.10;;
66927;SDS011;59882;45.624;11.698;2023-04-15T10:23:47;8.77;;;2.90;;
66927;SDS011;59882;45.624;11.698;2023-04-15T10:26:14;5.90;;;2.42;;
66927;SDS011;59882;45.624;11.698;2023-04-15T10:28:41;8.10;;;3.10;;
66927;SDS011;59882;45.624;11.698;2023-04-15T10:31:07;8.17;;;3.40;;
66927;SDS011;59882;45.624;11.698;2023-04-15T10:33:36;9.10;;;3.13;;
66927;SDS011;59882;45.624;11.698;2023-04-15T10:36:03;6.20;;;3.17;;
66927;SDS011;59882;45.624;11.698;2023-04-15T10:43:44;7.53;;;2.97;;
66927;SDS011;59882;45.624;11.698;2023-04-15T10:49:10;6.47;;;3.08;;
66927;SDS011;59882;45.624;11.698;2023-04-15T10:51:39;6.65;;;2.75;;
66927;SDS011;59882;45.624;11.698;2023-04-15T10:56:40;9.10;;;3.10;;
66927;SDS011;59882;45.624;11.698;2023-04-15T10:59:09;8.27;;;3.03;;
66927;SDS011;59882;45.624;11.698;2023-04-15T11:04:53;6.28;;;2.38;;
66927;SDS011;59882;45.624;11.698;2023-04-15T11:12:42;9.60;;;2.83;;
66927;SDS011;59882;45.624;11.698;2023-04-15T11:17:49;6.18;;;2.35;;
66927;SDS011;59882;45.624;11.698;2023-04-15T11:20:15;5.72;;;2.63;;
66927;SDS011;59882;45.624;11.698;2023-04-15T11:22:48;6.13;;;2.43;;
66927;SDS011;59882;45.624;11.698;2023-04-15T11:25:25;6.43;;;2.28;;
66927;SDS011;59882;45.624;11.698;2023-04-15T11:27:52;4.78;;;2.15;;
66927;SDS011;59882;45.624;11.698;2023-04-15T11:30:20;7.30;;;2.08;;
66927;SDS011;59882;45.624;11.698;2023-04-15T11:32:53;6.65;;;2.13;;
66927;SDS011;59882;45.624;11.698;2023-04-15T11:35:21;8.20;;;2.60;;
66927;SDS011;59882;45.624;11.698;2023-04-15T11:37:47;9.10;;;2.50;;
66927;SDS011;59882;45.624;11.698;2023-04-15T11:40:14;8.63;;;2.63;;
66927;SDS011;59882;45.624;11.698;2023-04-15T11:42:42;9.05;;;2.90;;
66927;SDS011;59882;45.624;11.698;2023-04-15T11:45:12;9.37;;;2.77;;
66927;SDS011;59882;45.624;11.698;2023-04-15T11:47:39;7.22;;;2.65;;
66927;SDS011;59882;45.624;11.698;2023-04-15T11:55:22;7.28;;;2.50;;
66927;SDS011;59882;45.624;11.698;2023-04-15T12:00:37;6.45;;;2.22;;
66927;SDS011;59882;45.624;11.698;2023-04-15T12:03:14;8.15;;;2.40;;
66927;SDS011;59882;45.624;11.698;2023-04-15T12:13:58;6.72;;;1.67;;
66927;SDS011;59882;45.624;11.698;2023-04-15T12:16:27;5.15;;;1.50;;
66927;SDS011;59882;45.624;11.698;2023-04-15T12:18:53;5.13;;;1.30;;
66927;SDS011;59882;45.624;11.698;2023-04-15T12:21:27;3.07;;;1.17;;
66927;SDS011;59882;45.624;11.698;2023-04-15T12:24:00;6.05;;;1.60;;
66927;SDS011;59882;45.624;11.698;2023-04-15T12:29:28;6.78;;;1.30;;
66927;SDS011;59882;45.624;11.698;2023-04-15T12:31:55;4.80;;;1.50;;
66927;SDS011;59882;45.624;11.698;2023-04-15T12:34:41;5.80;;;1.30;;
66927;SDS011;59882;45.624;11.698;2023-04-15T12:37:14;6.07;;;1.45;;
66927;SDS011;59882;45.624;11.698;2023-04-15T12:39:41;4.65;;;1.40;;
66927;SDS011;59882;45.624;11.698;2023-04-15T12:42:07;3.92;;;1.58;;
66927;SDS011;59882;45.624;11.698;2023-04-15T12:44:34;4.47;;;1.50;;
66927;SDS011;59882;45.624;11.698;2023-04-15T12:47:00;5.57;;;1.70;;
66927;SDS011;59882;45.624;11.698;2023-04-15T12:49:26;4.28;;;1.65;;
66927;SDS011;59882;45.624;11.698;2023-04-15T12:51:53;4.53;;;1.60;;
66927;SDS011;59882;45.624;11.698;2023-04-15T12:54:20;5.68;;;2.10;;
66927;SDS011;59882;45.624;11.698;2023-04-15T12:56:46;5.15;;;1.70;;
66927;SDS011;59882;45.624;11.698;2023-04-15T12:59:14;6.60;;;1.80;;
66927;SDS011;59882;45.624;11.698;2023-04-15T13:01:40;5.00;;;1.60;;
66927;SDS011;59882;45.624;11.698;2023-04-15T13:04:06;5.25;;;1.98;;
66927;SDS011;59882;45.624;11.698;2023-04-15T13:06:32;4.47;;;1.60;;
66927;SDS011;59882;45.624;11.698;2023-04-15T13:08:58;6.38;;;1.95;;
66927;SDS011;59882;45.624;11.698;2023-04-15T13:11:25;5.82;;;1.98;;
66927;SDS011;59882;45.624;11.698;2023-04-15T13:13:53;7.03;;;1.40;;
66927;SDS011;59882;45.624;11.698;2023-04-15T13:16:19;5.20;;;1.13;;
66927;SDS011;59882;45.624;11.698;2023-04-15T13:18:45;4.40;;;1.33;;
66927;SDS011;59882;45.624;11.698;2023-04-15T13:21:12;4.40;;;1.30;;
66927;SDS011;59882;45.624;11.698;2023-04-15T13:23:38;5.47;;;1.73;;
66927;SDS011;59882;45.624;11.698;2023-04-15T13:26:05;4.43;;;1.45;;
66927;SDS011;59882;45.624;11.698;2023-04-15T13:28:30;5.45;;;1.48;;
66927;SDS011;59882;45.624;11.698;2023-04-15T13:30:56;4.57;;;0.83;;
66927;SDS011;59882;45.624;11.698;2023-04-15T13:33:21;5.13;;;1.37;;
66927;SDS011;59882;45.624;11.698;2023-04-15T13:35:47;5.03;;;1.33;;
66927;SDS011;59882;45.624;11.698;2023-04-15T13:38:13;5.23;;;1.43;;
66927;SDS011;59882;45.624;11.698;2023-04-15T13:40:38;5.43;;;1.25;;
66927;SDS011;59882;45.624;11.698;2023-04-15T13:43:04;2.67;;;0.90;;
66927;SDS011;59882;45.624;11.698;2023-04-15T13:45:30;4.47;;;1.30;;
66927;SDS011;59882;45.624;11.698;2023-04-15T13:47:55;4.15;;;1.20;;
66927;SDS011;59882;45.624;11.698;2023-04-15T13:50:21;3.88;;;1.15;;
66927;SDS011;59882;45.624;11.698;2023-04-15T13:52:47;3.90;;;1.43;;
66927;SDS011;59882;45.624;11.698;2023-04-15T13:55:13;3.55;;;1.10;;
66927;SDS011;59882;45.624;11.698;2023-04-15T13:57:38;6.20;;;1.40;;
66927;SDS011;59882;45.624;11.698;2023-04-15T14:00:04;2.78;;;1.08;;
66927;SDS011;59882;45.624;11.698;2023-04-15T14:02:31;8.73;;;1.48;;
66927;SDS011;59882;45.624;11.698;2023-04-15T14:04:57;6.03;;;1.60;;
66927;SDS011;59882;45.624;11.698;2023-04-15T14:07:23;5.38;;;1.65;;
66927;SDS011;59882;45.624;11.698;2023-04-15T14:09:48;5.13;;;1.50;;
66927;SDS011;59882;45.624;11.698;2023-04-15T14:12:14;3.33;;;1.00;;
66927;SDS011;59882;45.624;11.698;2023-04-15T14:14:40;5.67;;;1.40;;
66927;SDS011;59882;45.624;11.698;2023-04-15T14:17:06;4.20;;;1.27;;
66927;SDS011;59882;45.624;11.698;2023-04-15T14:19:32;6.87;;;2.00;;
66927;SDS011;59882;45.624;11.698;2023-04-15T14:21:59;5.43;;;2.20;;
66927;SDS011;59882;45.624;11.698;2023-04-15T14:24:25;4.63;;;1.52;;
66927;SDS011;59882;45.624;11.698;2023-04-15T14:26:51;6.55;;;2.00;;
66927;SDS011;59882;45.624;11.698;2023-04-15T14:29:17;5.53;;;1.50;;
66927;SDS011;59882;45.624;11.698;2023-04-15T14:31:42;5.38;;;1.63;;
66927;SDS011;59882;45.624;11.698;2023-04-15T14:34:09;6.20;;;1.10;;
66927;SDS011;59882;45.624;11.698;2023-04-15T14:36:35;3.77;;;1.30;;
66927;SDS011;59882;45.624;11.698;2023-04-15T14:39:02;3.78;;;0.98;;
66927;SDS011;59882;45.624;11.698;2023-04-15T14:41:28;5.00;;;1.85;;
66927;SDS011;59882;45.624;11.698;2023-04-15T14:43:54;5.70;;;2.20;;
66927;SDS011;59882;45.624;11.698;2023-04-15T14:46:20;5.50;;;2.00;;
66927;SDS011;59882;45.624;11.698;2023-04-15T14:48:46;2.90;;;1.03;;
66927;SDS011;59882;45.624;11.698;2023-04-15T14:51:13;4.45;;;1.75;;
66927;SDS011;59882;45.624;11.698;2023-04-15T14:53:38;3.28;;;1.15;;
66927;SDS011;59882;45.624;11.698;2023-04-15T14:56:04;6.33;;;1.83;;
66927;SDS011;59882;45.624;11.698;2023-04-15T14:58:30;3.95;;;1.65;;
66927;SDS011;59882;45.624;11.698;2023-04-15T15:00:57;4.30;;;1.30;;
66927;SDS011;59882;45.624;11.698;2023-04-15T15:03:23;5.30;;;2.00;;
66927;SDS011;59882;45.624;11.698;2023-04-15T15:05:49;4.55;;;1.92;;
66927;SDS011;59882;45.624;11.698;2023-04-15T15:08:14;5.10;;;1.80;;
66927;SDS011;59882;45.624;11.698;2023-04-15T15:10:40;3.95;;;1.60;;
66927;SDS011;59882;45.624;11.698;2023-04-15T15:13:07;7.35;;;3.00;;
66927;SDS011;59882;45.624;11.698;2023-04-15T15:15:34;4.47;;;1.93;;